sensor_id;sensor_type;location;lat;lon;timestamp;pressure;altitude;pressure_sealevel;temperature;humidity
18500;BME280;9379;52.134;11.576;2022-12-29T00:00:19;99920.81;;;9.72;100.00
18500;BME280;9379;52.134;11.576;2022-12-29T00:02:46;99909.97;;;9.65;100.00
18500;BME280;9379;52.134;11.576;2022-12-29T00:05:13;99916.94;;;9.94;100.00
18500;BME280;9379;52.134;11.576;2022-12-29T00:07:41;99914.44;;;9.65;100.00
18500;BME280;9379;52.134;11.576;2022-12-29T00:10:08;99918.59;;;9.77;100.00
18500;BME280;9379;52.134;11.576;2022-12-29T00:12:35;99914.56;;;10.01;100.00
18500;BME280;9379;52.134;11.576;2022-12-29T00:15:21;99910.03;;;9.83;100.00
18500;BME280;9379;52.134;11.576;2022-12-29T00:18:06;99915.69;;;9.98;100.00
18500;BME280;9379;52.134;11.576;2022-12-29T00:20:35;99906.78;;;9.89;100.00
18500;BME280;9379;52.134;11.576;2022-12-29T00:23:20;99912.88;;;10.27;100.00
18500;BME280;9379;52.134;11.576;2022-12-29T00:26:12;99908.63;;;10.07;100.00
18500;BME280;9379;52.134;11.576;2022-12-29T00:28:57;99911.59;;;10.04;100.00
18500;BME280;9379;52.134;11.576;2022-12-29T00:31:38;99916.03;;;10.13;100.00
18500;BME280;9379;52.134;11.576;2022-12-29T00:34:24;99907.69;;;10.08;100.00
18500;BME280;9379;52.134;11.576;2022-12-29T00:37:07;99888.81;;;10.29;99.28
18500;BME280;9379;52.134;11.576;2022-12-29T00:39:36;99897.19;;;10.51;97.64
18500;BME280;9379;52.134;11.576;2022-12-29T00:42:20;99903.75;;;10.30;99.28
18500;BME280;9379;52.134;11.576;2022-12-29T00:45:05;99904.69;;;10.38;99.18
18500;BME280;9379;52.134;11.576;2022-12-29T00:47:31;99899.59;;;10.27;99.12
18500;BME280;9379;52.134;11.576;2022-12-29T00:49:58;99895.59;;;10.23;98.68
18500;BME280;9379;52.134;11.576;2022-12-29T00:52:24;99887.84;;;10.65;97.86
18500;BME280;9379;52.134;11.576;2022-12-29T00:54:52;99882.03;;;10.16;99.41
18500;BME280;9379;52.134;11.576;2022-12-29T00:57:19;99880.19;;;10.44;98.82
18500;BME280;9379;52.134;11.576;2022-12-29T00:59:46;99882.44;;;10.75;96.96
18500;BME280;9379;52.134;11.576;2022-12-29T01:02:12;99895.50;;;10.50;98.09
18500;BME280;9379;52.134;11.576;2022-12-29T01:04:39;99897.03;;;10.35;98.48
18500;BME280;9379;52.134;11.576;2022-12-29T01:07:06;99895.94;;;10.64;97.19
18500;BME280;9379;52.134;11.576;2022-12-29T01:09:33;99897.34;;;10.50;98.69
18500;BME280;9379;52.134;11.576;2022-12-29T01:12:19;99893.38;;;10.72;97.71
18500;BME280;9379;52.134;11.576;2022-12-29T01:15:06;99892.41;;;10.37;99.58
18500;BME280;9379;52.134;11.576;2022-12-29T01:17:33;99888.69;;;10.66;98.07
18500;BME280;9379;52.134;11.576;2022-12-29T01:20:01;99904.38;;;10.41;98.79
18500;BME280;9379;52.134;11.576;2022-12-29T01:22:28;99894.91;;;10.57;98.31
18500;BME280;9379;52.134;11.576;2022-12-29T01:24:55;99900.16;;;10.66;97.92
18500;BME280;9379;52.134;11.576;2022-12-29T01:27:23;99897.94;;;10.62;97.80
18500;BME280;9379;52.134;11.576;2022-12-29T01:29:50;99885.72;;;10.69;98.07
18500;BME280;9379;52.134;11.576;2022-12-29T01:32:16;99895.13;;;10.63;97.42
18500;BME280;9379;52.134;11.576;2022-12-29T01:34:43;99887.69;;;10.67;97.61
18500;BME280;9379;52.134;11.576;2022-12-29T01:37:10;99871.34;;;10.79;97.76
18500;BME280;9379;52.134;11.576;2022-12-29T01:39:37;99872.22;;;10.88;96.41
18500;BME280;9379;52.134;11.576;2022-12-29T01:42:04;99874.28;;;10.76;97.64
18500;BME280;9379;52.134;11.576;2022-12-29T01:44:53;99864.97;;;10.90;97.51
18500;BME280;9379;52.134;11.576;2022-12-29T01:47:29;99848.28;;;10.62;97.92
18500;BME280;9379;52.134;11.576;2022-12-29T01:50:00;99848.47;;;10.87;98.56
18500;BME280;9379;52.134;11.576;2022-12-29T01:52:30;99849.16;;;10.89;97.36
18500;BME280;9379;52.134;11.576;2022-12-29T01:55:02;99841.47;;;10.86;97.86
18500;BME280;9379;52.134;11.576;2022-12-29T01:57:31;99849.34;;;10.69;99.22
18500;BME280;9379;52.134;11.576;2022-12-29T02:00:04;99836.22;;;10.94;97.29
18500;BME280;9379;52.134;11.576;2022-12-29T02:02:33;99838.78;;;10.77;98.66
18500;BME280;9379;52.134;11.576;2022-12-29T02:05:02;99844.25;;;11.02;98.05
18500;BME280;9379;52.134;11.576;2022-12-29T02:07:32;99838.16;;;10.84;97.86
18500;BME280;9379;52.134;11.576;2022-12-29T02:09:59;99838.97;;;10.84;98.03
18500;BME280;9379;52.134;11.576;2022-12-29T02:12:27;99826.84;;;10.81;98.35
18500;BME280;9379;52.134;11.576;2022-12-29T02:14:57;99820.69;;;11.07;97.43
18500;BME280;9379;52.134;11.576;2022-12-29T02:17:38;99808.91;;;10.84;98.54
18500;BME280;9379;52.134;11.576;2022-12-29T02:26:29;99801.88;;;11.00;97.34
18500;BME280;9379;52.134;11.576;2022-12-29T02:29:24;99786.44;;;11.04;97.80
18500;BME280;9379;52.134;11.576;2022-12-29T02:31:59;99785.88;;;10.66;99.49
18500;BME280;9379;52.134;11.576;2022-12-29T02:34:36;99794.75;;;11.01;97.71
18500;BME280;9379;52.134;11.576;2022-12-29T02:37:15;99783.47;;;10.81;98.86
18500;BME280;9379;52.134;11.576;2022-12-29T02:39:50;99786.25;;;10.71;98.82
18500;BME280;9379;52.134;11.576;2022-12-29T02:42:23;99794.53;;;10.68;99.92
18500;BME280;9379;52.134;11.576;2022-12-29T02:44:55;99780.56;;;10.92;98.43
18500;BME280;9379;52.134;11.576;2022-12-29T02:47:29;99784.63;;;11.04;98.12
18500;BME280;9379;52.134;11.576;2022-12-29T02:50:05;99783.84;;;10.86;99.27
18500;BME280;9379;52.134;11.576;2022-12-29T02:52:35;99791.97;;;10.85;98.76
18500;BME280;9379;52.134;11.576;2022-12-29T02:55:05;99795.88;;;10.72;99.89
18500;BME280;9379;52.134;11.576;2022-12-29T02:57:34;99792.81;;;10.85;99.75
18500;BME280;9379;52.134;11.576;2022-12-29T03:00:04;99796.19;;;10.95;99.33
18500;BME280;9379;52.134;11.576;2022-12-29T03:03:08;99806.91;;;10.86;99.92
18500;BME280;9379;52.134;11.576;2022-12-29T03:05:59;99801.75;;;10.84;100.00
18500;BME280;9379;52.134;11.576;2022-12-29T03:08:34;99794.88;;;10.99;99.92
18500;BME280;9379;52.134;11.576;2022-12-29T03:11:07;99789.78;;;10.80;100.00
18500;BME280;9379;52.134;11.576;2022-12-29T03:13:59;99780.41;;;10.94;100.00
18500;BME280;9379;52.134;11.576;2022-12-29T03:16:48;99767.06;;;10.86;100.00
18500;BME280;9379;52.134;11.576;2022-12-29T03:19:21;99767.53;;;10.81;100.00
18500;BME280;9379;52.134;11.576;2022-12-29T03:21:53;99765.63;;;10.65;100.00
18500;BME280;9379;52.134;11.576;2022-12-29T03:24:41;99774.16;;;11.03;99.29
18500;BME280;9379;52.134;11.576;2022-12-29T03:27:13;99772.44;;;10.94;100.00
18500;BME280;9379;52.134;11.576;2022-12-29T03:29:45;99769.72;;;10.86;100.00
18500;BME280;9379;52.134;11.576;2022-12-29T03:32:19;99778.50;;;10.86;100.00
18500;BME280;9379;52.134;11.576;2022-12-29T03:34:49;99774.66;;;11.06;99.18
18500;BME280;9379;52.134;11.576;2022-12-29T03:37:18;99777.75;;;10.94;99.69
18500;BME280;9379;52.134;11.576;2022-12-29T03:39:47;99769.38;;;10.80;100.00
18500;BME280;9379;52.134;11.576;2022-12-29T03:42:19;99773.16;;;11.04;99.58
18500;BME280;9379;52.134;11.576;2022-12-29T03:44:48;99767.66;;;11.05;99.41
18500;BME280;9379;52.134;11.576;2022-12-29T03:47:19;99770.09;;;11.25;98.21
18500;BME280;9379;52.134;11.576;2022-12-29T03:49:48;99772.47;;;11.36;98.22
18500;BME280;9379;52.134;11.576;2022-12-29T03:52:15;99771.25;;;11.30;98.56
18500;BME280;9379;52.134;11.576;2022-12-29T03:54:42;99758.63;;;11.24;98.71
18500;BME280;9379;52.134;11.576;2022-12-29T03:57:10;99754.38;;;11.05;99.64
18500;BME280;9379;52.134;11.576;2022-12-29T03:59:37;99758.41;;;11.18;99.27
18500;BME280;9379;52.134;11.576;2022-12-29T04:02:03;99750.22;;;11.11;99.47
18500;BME280;9379;52.134;11.576;2022-12-29T04:04:30;99748.34;;;11.37;98.25
18500;BME280;9379;52.134;11.576;2022-12-29T04:06:58;99753.97;;;11.34;98.84
18500;BME280;9379;52.134;11.576;2022-12-29T04:09:25;99743.91;;;11.54;97.93
18500;BME280;9379;52.134;11.576;2022-12-29T04:11:52;99744.69;;;11.38;98.86
18500;BME280;9379;52.134;11.576;2022-12-29T04:14:18;99747.41;;;11.55;97.87
18500;BME280;9379;52.134;11.576;2022-12-29T04:16:45;99752.34;;;11.42;98.65
18500;BME280;9379;52.134;11.576;2022-12-29T04:19:12;99747.09;;;11.58;97.41
18500;BME280;9379;52.134;11.576;2022-12-29T04:21:39;99741.91;;;11.48;98.63
18500;BME280;9379;52.134;11.576;2022-12-29T04:24:07;99737.94;;;11.68;97.29
18500;BME280;9379;52.134;11.576;2022-12-29T04:26:34;99736.44;;;11.66;97.71
18500;BME280;9379;52.134;11.576;2022-12-29T04:29:01;99733.31;;;11.71;97.38
18500;BME280;9379;52.134;11.576;2022-12-29T04:31:27;99719.09;;;11.37;98.63
18500;BME280;9379;52.134;11.576;2022-12-29T04:33:54;99724.94;;;11.57;97.99
18500;BME280;9379;52.134;11.576;2022-12-29T04:36:22;99726.09;;;11.55;97.97
18500;BME280;9379;52.134;11.576;2022-12-29T04:38:49;99722.75;;;11.36;99.03
18500;BME280;9379;52.134;11.576;2022-12-29T04:41:17;99716.72;;;11.34;99.10
18500;BME280;9379;52.134;11.576;2022-12-29T04:43:44;99720.19;;;11.19;99.89
18500;BME280;9379;52.134;11.576;2022-12-29T04:46:11;99710.94;;;11.39;98.88
18500;BME280;9379;52.134;11.576;2022-12-29T04:48:37;99717.53;;;11.19;99.86
18500;BME280;9379;52.134;11.576;2022-12-29T04:51:05;99721.97;;;11.10;100.00
18500;BME280;9379;52.134;11.576;2022-12-29T04:53:31;99718.03;;;11.22;99.35
18500;BME280;9379;52.134;11.576;2022-12-29T04:55:58;99714.78;;;11.45;98.57
18500;BME280;9379;52.134;11.576;2022-12-29T04:58:26;99713.06;;;11.27;99.48
18500;BME280;9379;52.134;11.576;2022-12-29T05:00:53;99720.69;;;11.14;100.00
18500;BME280;9379;52.134;11.576;2022-12-29T05:03:20;99713.50;;;11.06;100.00
18500;BME280;9379;52.134;11.576;2022-12-29T05:05:46;99731.94;;;11.08;100.00
18500;BME280;9379;52.134;11.576;2022-12-29T05:08:13;99717.09;;;10.97;100.00
18500;BME280;9379;52.134;11.576;2022-12-29T05:10:40;99715.03;;;11.17;99.90
18500;BME280;9379;52.134;11.576;2022-12-29T05:13:10;99711.81;;;11.05;100.00
18500;BME280;9379;52.134;11.576;2022-12-29T05:15:38;99711.16;;;11.03;100.00
18500;BME280;9379;52.134;11.576;2022-12-29T05:18:05;99702.38;;;11.11;99.82
18500;BME280;9379;52.134;11.576;2022-12-29T05:20:31;99703.50;;;11.00;100.00
18500;BME280;9379;52.134;11.576;2022-12-29T05:22:58;99701.25;;;10.79;100.00
18500;BME280;9379;52.134;11.576;2022-12-29T05:25:25;99694.88;;;11.06;100.00
18500;BME280;9379;52.134;11.576;2022-12-29T05:27:52;99705.56;;;10.80;100.00
18500;BME280;9379;52.134;11.576;2022-12-29T05:30:18;99701.44;;;10.86;100.00
18500;BME280;9379;52.134;11.576;2022-12-29T05:32:47;99709.63;;;10.93;100.00
18500;BME280;9379;52.134;11.576;2022-12-29T05:35:13;99707.25;;;10.81;100.00
18500;BME280;9379;52.134;11.576;2022-12-29T05:37:40;99688.19;;;10.94;100.00
18500;BME280;9379;52.134;11.576;2022-12-29T05:40:08;99690.06;;;11.02;100.00
18500;BME280;9379;52.134;11.576;2022-12-29T05:42:35;99685.19;;;10.89;100.00
18500;BME280;9379;52.134;11.576;2022-12-29T05:45:02;99692.84;;;10.92;100.00
18500;BME280;9379;52.134;11.576;2022-12-29T05:47:29;99693.84;;;10.91;100.00
18500;BME280;9379;52.134;11.576;2022-12-29T05:49:57;99690.00;;;10.94;100.00
18500;BME280;9379;52.134;11.576;2022-12-29T05:52:24;99679.16;;;10.79;100.00
18500;BME280;9379;52.134;11.576;2022-12-29T05:54:51;99680.50;;;10.83;100.00
18500;BME280;9379;52.134;11.576;2022-12-29T05:57:18;99672.75;;;10.98;100.00
18500;BME280;9379;52.134;11.576;2022-12-29T05:59:44;99681.78;;;10.71;100.00
18500;BME280;9379;52.134;11.576;2022-12-29T06:02:11;99683.00;;;10.85;100.00
18500;BME280;9379;52.134;11.576;2022-12-29T06:04:38;99680.81;;;10.80;100.00
18500;BME280;9379;52.134;11.576;2022-12-29T06:07:06;99682.13;;;10.76;100.00
18500;BME280;9379;52.134;11.576;2022-12-29T06:09:32;99663.97;;;11.05;100.00
18500;BME280;9379;52.134;11.576;2022-12-29T06:11:59;99673.56;;;10.90;100.00
18500;BME280;9379;52.134;11.576;2022-12-29T06:14:26;99672.75;;;10.98;100.00
18500;BME280;9379;52.134;11.576;2022-12-29T06:16:53;99685.25;;;11.05;100.00
18500;BME280;9379;52.134;11.576;2022-12-29T06:19:20;99684.44;;;11.21;100.00
18500;BME280;9379;52.134;11.576;2022-12-29T06:21:47;99684.63;;;11.12;100.00
18500;BME280;9379;52.134;11.576;2022-12-29T06:24:15;99677.97;;;11.16;100.00
18500;BME280;9379;52.134;11.576;2022-12-29T06:26:41;99670.97;;;11.15;100.00
18500;BME280;9379;52.134;11.576;2022-12-29T06:29:08;99680.81;;;11.30;99.13
18500;BME280;9379;52.134;11.576;2022-12-29T06:31:35;99677.97;;;11.16;99.70
18500;BME280;9379;52.134;11.576;2022-12-29T06:34:02;99688.06;;;11.04;100.00
18500;BME280;9379;52.134;11.576;2022-12-29T06:36:29;99685.28;;;11.22;100.00
18500;BME280;9379;52.134;11.576;2022-12-29T06:38:55;99701.53;;;11.10;100.00
18500;BME280;9379;52.134;11.576;2022-12-29T06:41:24;99695.59;;;11.17;100.00
18500;BME280;9379;52.134;11.576;2022-12-29T06:43:50;99699.44;;;11.30;99.71
18500;BME280;9379;52.134;11.576;2022-12-29T06:46:17;99695.09;;;11.13;100.00
18500;BME280;9379;52.134;11.576;2022-12-29T06:48:44;99696.44;;;11.33;99.55
18500;BME280;9379;52.134;11.576;2022-12-29T06:51:10;99693.41;;;11.12;100.00
18500;BME280;9379;52.134;11.576;2022-12-29T06:53:37;99691.59;;;11.13;100.00
18500;BME280;9379;52.134;11.576;2022-12-29T06:56:04;99691.34;;;11.48;99.38
18500;BME280;9379;52.134;11.576;2022-12-29T06:58:33;99688.47;;;11.33;100.00
18500;BME280;9379;52.134;11.576;2022-12-29T07:00:59;99694.31;;;11.45;100.00
18500;BME280;9379;52.134;11.576;2022-12-29T07:03:26;99679.69;;;11.41;100.00
18500;BME280;9379;52.134;11.576;2022-12-29T07:05:53;99659.25;;;11.50;100.00
18500;BME280;9379;52.134;11.576;2022-12-29T07:08:20;99669.06;;;11.65;99.58
18500;BME280;9379;52.134;11.576;2022-12-29T07:10:47;99681.22;;;11.68;98.63
18500;BME280;9379;52.134;11.576;2022-12-29T07:13:14;99689.84;;;11.37;100.00
18500;BME280;9379;52.134;11.576;2022-12-29T07:15:42;99683.69;;;11.45;99.99
18500;BME280;9379;52.134;11.576;2022-12-29T07:18:08;99671.25;;;11.62;99.39
18500;BME280;9379;52.134;11.576;2022-12-29T07:20:35;99684.19;;;11.57;99.98
18500;BME280;9379;52.134;11.576;2022-12-29T07:23:02;99692.69;;;11.52;100.00
18500;BME280;9379;52.134;11.576;2022-12-29T07:25:29;99689.81;;;11.46;100.00
18500;BME280;9379;52.134;11.576;2022-12-29T07:27:55;99698.34;;;11.49;100.00
18500;BME280;9379;52.134;11.576;2022-12-29T07:30:25;99696.47;;;11.42;100.00
18500;BME280;9379;52.134;11.576;2022-12-29T07:32:53;99694.19;;;11.63;99.41
18500;BME280;9379;52.134;11.576;2022-12-29T07:35:20;99690.31;;;11.41;100.00
18500;BME280;9379;52.134;11.576;2022-12-29T07:37:46;99683.69;;;11.37;100.00
18500;BME280;9379;52.134;11.576;2022-12-29T07:40:14;99691.38;;;11.64;99.71
18500;BME280;9379;52.134;11.576;2022-12-29T07:42:40;99688.19;;;11.53;100.00
18500;BME280;9379;52.134;11.576;2022-12-29T07:45:08;99692.41;;;11.80;98.87
18500;BME280;9379;52.134;11.576;2022-12-29T07:47:35;99691.56;;;11.79;98.39
18500;BME280;9379;52.134;11.576;2022-12-29T07:50:04;99694.84;;;11.65;99.43
18500;BME280;9379;52.134;11.576;2022-12-29T07:52:31;99694.59;;;11.84;98.83
18500;BME280;9379;52.134;11.576;2022-12-29T07:54:58;99708.25;;;11.97;98.19
18500;BME280;9379;52.134;11.576;2022-12-29T07:57:25;99708.69;;;11.77;99.17
18500;BME280;9379;52.134;11.576;2022-12-29T07:59:52;99698.53;;;11.72;99.10
18500;BME280;9379;52.134;11.576;2022-12-29T08:02:18;99708.06;;;12.07;97.82
18500;BME280;9379;52.134;11.576;2022-12-29T08:04:45;99690.25;;;11.91;97.71
18500;BME280;9379;52.134;11.576;2022-12-29T08:07:13;99703.59;;;12.08;97.71
18500;BME280;9379;52.134;11.576;2022-12-29T08:09:40;99699.56;;;11.87;98.52
18500;BME280;9379;52.134;11.576;2022-12-29T08:12:09;99700.09;;;12.07;97.25
18500;BME280;9379;52.134;11.576;2022-12-29T08:14:36;99694.25;;;12.20;96.66
18500;BME280;9379;52.134;11.576;2022-12-29T08:17:03;99704.03;;;12.36;96.38
18500;BME280;9379;52.134;11.576;2022-12-29T08:19:30;99702.22;;;12.12;97.05
18500;BME280;9379;52.134;11.576;2022-12-29T08:21:56;99692.75;;;12.09;97.11
18500;BME280;9379;52.134;11.576;2022-12-29T08:24:24;99689.75;;;12.20;96.35
18500;BME280;9379;52.134;11.576;2022-12-29T08:26:51;99687.09;;;12.29;96.51
18500;BME280;9379;52.134;11.576;2022-12-29T08:29:18;99687.25;;;12.11;97.01
18500;BME280;9379;52.134;11.576;2022-12-29T08:31:46;99699.88;;;12.33;95.55
18500;BME280;9379;52.134;11.576;2022-12-29T08:34:13;99693.41;;;12.27;96.05
18500;BME280;9379;52.134;11.576;2022-12-29T08:36:40;99699.53;;;12.36;95.70
18500;BME280;9379;52.134;11.576;2022-12-29T08:39:06;99692.97;;;12.71;94.46
18500;BME280;9379;52.134;11.576;2022-12-29T08:41:35;99701.38;;;12.44;94.24
18500;BME280;9379;52.134;11.576;2022-12-29T08:44:02;99690.13;;;12.73;93.83
18500;BME280;9379;52.134;11.576;2022-12-29T08:46:28;99698.56;;;12.93;92.56
18500;BME280;9379;52.134;11.576;2022-12-29T08:48:55;99701.06;;;12.94;92.35
18500;BME280;9379;52.134;11.576;2022-12-29T08:51:22;99704.25;;;12.90;92.86
18500;BME280;9379;52.134;11.576;2022-12-29T08:53:49;99702.50;;;13.13;92.53
18500;BME280;9379;52.134;11.576;2022-12-29T08:56:16;99710.03;;;13.01;92.62
18500;BME280;9379;52.134;11.576;2022-12-29T08:58:44;99710.69;;;13.03;92.81
18500;BME280;9379;52.134;11.576;2022-12-29T09:01:11;99725.31;;;13.24;91.99
18500;BME280;9379;52.134;11.576;2022-12-29T09:03:38;99723.22;;;13.03;93.07
18500;BME280;9379;52.134;11.576;2022-12-29T09:06:05;99720.28;;;13.29;92.38
18500;BME280;9379;52.134;11.576;2022-12-29T09:08:31;99722.34;;;13.10;93.35
18500;BME280;9379;52.134;11.576;2022-12-29T09:11:06;99723.69;;;13.06;93.70
18500;BME280;9379;52.134;11.576;2022-12-29T09:13:33;99726.03;;;13.09;93.75
18500;BME280;9379;52.134;11.576;2022-12-29T09:16:02;99724.41;;;12.84;95.49
18500;BME280;9379;52.134;11.576;2022-12-29T09:18:29;99714.84;;;13.06;94.64
18500;BME280;9379;52.134;11.576;2022-12-29T09:20:57;99712.34;;;13.04;93.82
18500;BME280;9379;52.134;11.576;2022-12-29T09:23:24;99718.56;;;13.44;92.70
18500;BME280;9379;52.134;11.576;2022-12-29T09:25:51;99712.72;;;13.40;92.92
18500;BME280;9379;52.134;11.576;2022-12-29T09:28:18;99710.00;;;13.49;92.73
18500;BME280;9379;52.134;11.576;2022-12-29T09:30:45;99710.38;;;13.46;93.08
18500;BME280;9379;52.134;11.576;2022-12-29T09:33:13;99712.34;;;13.12;94.51
18500;BME280;9379;52.134;11.576;2022-12-29T09:35:41;99716.16;;;13.57;92.56
18500;BME280;9379;52.134;11.576;2022-12-29T09:38:08;99727.88;;;13.09;94.40
18500;BME280;9379;52.134;11.576;2022-12-29T09:40:35;99715.22;;;13.42;93.10
18500;BME280;9379;52.134;11.576;2022-12-29T09:43:13;99717.72;;;13.43;92.97
18500;BME280;9379;52.134;11.576;2022-12-29T09:45:44;99724.00;;;13.11;94.41
18500;BME280;9379;52.134;11.576;2022-12-29T09:48:16;99728.25;;;12.98;94.82
18500;BME280;9379;52.134;11.576;2022-12-29T09:50:47;99727.69;;;13.10;94.94
18500;BME280;9379;52.134;11.576;2022-12-29T09:53:21;99725.06;;;12.94;95.82
18500;BME280;9379;52.134;11.576;2022-12-29T09:55:50;99727.91;;;12.93;96.38
18500;BME280;9379;52.134;11.576;2022-12-29T09:58:23;99735.31;;;12.66;95.89
18500;BME280;9379;52.134;11.576;2022-12-29T10:00:56;99739.59;;;12.83;94.79
18500;BME280;9379;52.134;11.576;2022-12-29T10:03:30;99732.59;;;12.91;93.89
18500;BME280;9379;52.134;11.576;2022-12-29T10:06:04;99739.94;;;12.89;94.46
18500;BME280;9379;52.134;11.576;2022-12-29T10:08:37;99737.16;;;12.74;96.33
18500;BME280;9379;52.134;11.576;2022-12-29T10:11:17;99735.59;;;12.88;97.79
18500;BME280;9379;52.134;11.576;2022-12-29T10:14:02;99738.81;;;12.75;98.81
18500;BME280;9379;52.134;11.576;2022-12-29T10:16:40;99738.50;;;12.45;98.31
18500;BME280;9379;52.134;11.576;2022-12-29T10:19:43;99732.19;;;12.38;100.00
18500;BME280;9379;52.134;11.576;2022-12-29T10:22:27;99749.84;;;12.23;100.00
18500;BME280;9379;52.134;11.576;2022-12-29T10:24:56;99756.34;;;11.96;100.00
18500;BME280;9379;52.134;11.576;2022-12-29T10:27:23;99750.50;;;11.84;100.00
18500;BME280;9379;52.134;11.576;2022-12-29T10:29:53;99750.81;;;11.89;100.00
18500;BME280;9379;52.134;11.576;2022-12-29T10:32:26;99748.84;;;11.83;100.00
18500;BME280;9379;52.134;11.576;2022-12-29T10:34:59;99749.63;;;11.76;100.00
18500;BME280;9379;52.134;11.576;2022-12-29T10:37:34;99753.19;;;11.92;100.00
18500;BME280;9379;52.134;11.576;2022-12-29T10:40:15;99751.81;;;11.88;100.00
18500;BME280;9379;52.134;11.576;2022-12-29T10:42:46;99752.94;;;11.78;100.00
18500;BME280;9379;52.134;11.576;2022-12-29T10:45:18;99756.16;;;11.81;100.00
18500;BME280;9379;52.134;11.576;2022-12-29T10:47:52;99752.72;;;11.47;100.00
18500;BME280;9379;52.134;11.576;2022-12-29T10:50:22;99745.44;;;11.65;100.00
18500;BME280;9379;52.134;11.576;2022-12-29T10:52:49;99750.72;;;11.49;100.00
18500;BME280;9379;52.134;11.576;2022-12-29T10:55:20;99753.50;;;11.39;100.00
18500;BME280;9379;52.134;11.576;2022-12-29T10:57:48;99753.28;;;11.75;100.00
18500;BME280;9379;52.134;11.576;2022-12-29T11:00:17;99734.59;;;11.50;100.00
18500;BME280;9379;52.134;11.576;2022-12-29T11:03:00;99761.28;;;11.32;100.00
18500;BME280;9379;52.134;11.576;2022-12-29T11:05:38;99752.84;;;11.45;100.00
18500;BME280;9379;52.134;11.576;2022-12-29T11:08:10;99743.91;;;11.54;100.00
18500;BME280;9379;52.134;11.576;2022-12-29T11:10:40;99733.19;;;11.30;100.00
18500;BME280;9379;52.134;11.576;2022-12-29T11:13:13;99748.38;;;11.46;100.00
18500;BME280;9379;52.134;11.576;2022-12-29T11:15:41;99746.63;;;11.79;100.00
18500;BME280;9379;52.134;11.576;2022-12-29T11:18:20;99749.66;;;11.92;100.00
18500;BME280;9379;52.134;11.576;2022-12-29T11:20:50;99749.34;;;12.11;97.16
18500;BME280;9379;52.134;11.576;2022-12-29T11:23:27;99739.19;;;11.98;98.04
18500;BME280;9379;52.134;11.576;2022-12-29T11:26:22;99741.38;;;12.27;94.98
18500;BME280;9379;52.134;11.576;2022-12-29T11:29:08;99745.66;;;12.53;95.88
18500;BME280;9379;52.134;11.576;2022-12-29T11:31:40;99741.94;;;12.87;93.90
18500;BME280;9379;52.134;11.576;2022-12-29T11:34:08;99745.81;;;12.68;93.64
18500;BME280;9379;52.134;11.576;2022-12-29T11:36:36;99747.63;;;12.75;92.10
18500;BME280;9379;52.134;11.576;2022-12-29T11:39:04;99748.94;;;12.79;90.84
18500;BME280;9379;52.134;11.576;2022-12-29T11:41:31;99757.78;;;12.80;90.99
18500;BME280;9379;52.134;11.576;2022-12-29T11:44:00;99749.06;;;13.02;91.15
18500;BME280;9379;52.134;11.576;2022-12-29T11:46:30;99756.06;;;12.95;90.65
18500;BME280;9379;52.134;11.576;2022-12-29T11:48:59;99752.25;;;12.98;90.03
18500;BME280;9379;52.134;11.576;2022-12-29T11:51:28;99746.31;;;13.27;89.79
18500;BME280;9379;52.134;11.576;2022-12-29T11:53:59;99756.19;;;13.57;88.99
18500;BME280;9379;52.134;11.576;2022-12-29T11:56:34;99760.84;;;13.16;90.94
18500;BME280;9379;52.134;11.576;2022-12-29T11:59:39;99765.16;;;13.17;90.01
18500;BME280;9379;52.134;11.576;2022-12-29T12:02:31;99761.91;;;12.91;92.10
18500;BME280;9379;52.134;11.576;2022-12-29T12:05:05;99747.38;;;13.01;92.38
18500;BME280;9379;52.134;11.576;2022-12-29T12:07:39;99747.38;;;13.09;91.77
18500;BME280;9379;52.134;11.576;2022-12-29T12:10:14;99755.59;;;12.92;92.93
18500;BME280;9379;52.134;11.576;2022-12-29T12:12:47;99751.34;;;13.13;93.79
18500;BME280;9379;52.134;11.576;2022-12-29T12:15:18;99757.41;;;13.47;92.30
18500;BME280;9379;52.134;11.576;2022-12-29T12:17:50;99752.34;;;13.83;91.50
18500;BME280;9379;52.134;11.576;2022-12-29T12:20:22;99742.28;;;13.93;90.34
18500;BME280;9379;52.134;11.576;2022-12-29T12:22:58;99744.53;;;13.81;89.75
18500;BME280;9379;52.134;11.576;2022-12-29T12:25:31;99731.31;;;13.57;91.31
18500;BME280;9379;52.134;11.576;2022-12-29T12:28:09;99749.25;;;13.40;90.32
18500;BME280;9379;52.134;11.576;2022-12-29T12:30:40;99749.16;;;13.25;91.23
18500;BME280;9379;52.134;11.576;2022-12-29T12:33:16;99762.56;;;13.01;93.38
18500;BME280;9379;52.134;11.576;2022-12-29T12:35:53;99758.53;;;13.21;93.57
18500;BME280;9379;52.134;11.576;2022-12-29T12:38:31;99742.41;;;13.46;93.84
18500;BME280;9379;52.134;11.576;2022-12-29T12:41:06;99746.69;;;13.07;95.47
18500;BME280;9379;52.134;11.576;2022-12-29T12:43:39;99750.19;;;13.08;94.47
18500;BME280;9379;52.134;11.576;2022-12-29T12:46:36;99751.63;;;13.35;94.98
18500;BME280;9379;52.134;11.576;2022-12-29T12:52:10;99734.34;;;13.14;94.32
18500;BME280;9379;52.134;11.576;2022-12-29T12:55:01;99750.59;;;12.97;94.23
18500;BME280;9379;52.134;11.576;2022-12-29T12:57:43;99752.44;;;12.88;93.52
18500;BME280;9379;52.134;11.576;2022-12-29T13:00:14;99738.34;;;13.10;91.62
18500;BME280;9379;52.134;11.576;2022-12-29T13:02:54;99744.59;;;12.87;91.07
18500;BME280;9379;52.134;11.576;2022-12-29T13:05:34;99741.84;;;13.11;89.77
18500;BME280;9379;52.134;11.576;2022-12-29T13:08:36;99748.31;;;13.33;86.08
18500;BME280;9379;52.134;11.576;2022-12-29T13:11:13;99746.13;;;13.36;85.88
18500;BME280;9379;52.134;11.576;2022-12-29T13:14:07;99743.66;;;13.27;86.89
18500;BME280;9379;52.134;11.576;2022-12-29T13:16:42;99744.50;;;13.19;85.02
18500;BME280;9379;52.134;11.576;2022-12-29T13:19:17;99749.63;;;13.29;84.69
18500;BME280;9379;52.134;11.576;2022-12-29T13:22:08;99759.38;;;13.05;85.20
18500;BME280;9379;52.134;11.576;2022-12-29T13:24:47;99764.50;;;13.15;85.76
18500;BME280;9379;52.134;11.576;2022-12-29T13:27:23;99764.53;;;13.23;85.72